sensor_id;sensor_type;location;lat;lon;timestamp;pressure;altitude;pressure_sealevel;temperature;humidity
75312;BME280;63906;55.686;37.532;2024-01-10T00:03:36;98356.34;;;-1.46;97.59
75312;BME280;63906;55.686;37.532;2024-01-10T00:08:37;98358.56;;;-1.51;97.50
75312;BME280;63906;55.686;37.532;2024-01-10T00:13:38;98376.88;;;-1.27;98.22
75312;BME280;63906;55.686;37.532;2024-01-10T00:18:38;98325.84;;;-1.33;97.72
75312;BME280;63906;55.686;37.532;2024-01-10T00:23:40;98289.84;;;-1.52;97.92
75312;BME280;63906;55.686;37.532;2024-01-10T00:28:40;98328.50;;;-1.25;97.78
75312;BME280;63906;55.686;37.532;2024-01-10T00:33:41;98285.34;;;-1.32;97.63
75312;BME280;63906;55.686;37.532;2024-01-10T00:38:41;98336.25;;;-1.07;98.28
75312;BME280;63906;55.686;37.532;2024-01-10T00:43:42;98329.03;;;-1.03;98.63
75312;BME280;63906;55.686;37.532;2024-01-10T00:48:42;98357.94;;;-1.00;98.21
75312;BME280;63906;55.686;37.532;2024-01-10T00:53:43;98319.13;;;-1.08;98.39
75312;BME280;63906;55.686;37.532;2024-01-10T00:58:43;98370.47;;;-0.87;98.70
75312;BME280;63906;55.686;37.532;2024-01-10T01:03:44;98382.09;;;-0.73;98.85
75312;BME280;63906;55.686;37.532;2024-01-10T01:08:44;98355.06;;;-0.79;98.73
75312;BME280;63906;55.686;37.532;2024-01-10T01:13:45;98366.78;;;-0.67;98.69
75312;BME280;63906;55.686;37.532;2024-01-10T01:18:45;98388.53;;;-0.51;99.02
75312;BME280;63906;55.686;37.532;2024-01-10T01:23:46;98365.28;;;-0.51;98.85
75312;BME280;63906;55.686;37.532;2024-01-10T01:28:46;98335.09;;;-0.69;98.91
75312;BME280;63906;55.686;37.532;2024-01-10T01:33:47;98345.16;;;-0.66;98.98
75312;BME280;63906;55.686;37.532;2024-01-10T01:38:47;98407.75;;;-0.36;98.77
75312;BME280;63906;55.686;37.532;2024-01-10T01:43:48;98403.16;;;-0.42;99.23
75312;BME280;63906;55.686;37.532;2024-01-10T01:48:49;98413.50;;;-0.42;99.23
75312;BME280;63906;55.686;37.532;2024-01-10T01:53:50;98382.31;;;-0.67;99.03
75312;BME280;63906;55.686;37.532;2024-01-10T01:58:51;98405.78;;;-0.78;99.15
75312;BME280;63906;55.686;37.532;2024-01-10T02:03:52;98447.94;;;-0.60;99.07
75312;BME280;63906;55.686;37.532;2024-01-10T02:08:52;98493.31;;;-0.57;99.25
75312;BME280;63906;55.686;37.532;2024-01-10T02:13:53;98473.94;;;-0.89;98.85
75312;BME280;63906;55.686;37.532;2024-01-10T02:18:56;98512.06;;;-0.73;99.04
75312;BME280;63906;55.686;37.532;2024-01-10T02:23:57;98510.81;;;-0.87;99.31
75312;BME280;63906;55.686;37.532;2024-01-10T02:28:57;98494.25;;;-1.21;98.99
75312;BME280;63906;55.686;37.532;2024-01-10T02:33:58;98599.31;;;-0.94;98.81
75312;BME280;63906;55.686;37.532;2024-01-10T02:38:58;98571.69;;;-1.21;98.82
75312;BME280;63906;55.686;37.532;2024-01-10T02:43:59;98592.91;;;-1.37;99.23
75312;BME280;63906;55.686;37.532;2024-01-10T02:48:59;98610.31;;;-1.29;98.57
75312;BME280;63906;55.686;37.532;2024-01-10T02:54:00;98588.91;;;-1.69;98.94
75312;BME280;63906;55.686;37.532;2024-01-10T02:59:00;98604.69;;;-1.91;98.47
75312;BME280;63906;55.686;37.532;2024-01-10T03:04:01;98663.28;;;-1.93;98.08
75312;BME280;63906;55.686;37.532;2024-01-10T03:09:02;98703.06;;;-1.96;97.42
75312;BME280;63906;55.686;37.532;2024-01-10T03:14:07;98637.13;;;-2.58;97.62
75312;BME280;63906;55.686;37.532;2024-01-10T03:19:08;98731.34;;;-2.25;97.25
75312;BME280;63906;55.686;37.532;2024-01-10T03:24:08;98742.34;;;-2.53;97.65
75312;BME280;63906;55.686;37.532;2024-01-10T03:29:09;98771.84;;;-2.67;98.06
75312;BME280;63906;55.686;37.532;2024-01-10T03:34:09;98753.50;;;-2.94;98.65
75312;BME280;63906;55.686;37.532;2024-01-10T03:39:10;98802.22;;;-2.82;97.35
75312;BME280;63906;55.686;37.532;2024-01-10T03:44:10;98808.19;;;-3.02;97.35
75312;BME280;63906;55.686;37.532;2024-01-10T03:49:11;98838.44;;;-3.15;97.55
75312;BME280;63906;55.686;37.532;2024-01-10T03:54:11;98816.66;;;-3.55;97.23
75312;BME280;63906;55.686;37.532;2024-01-10T03:59:12;98805.84;;;-3.92;96.60
75312;BME280;63906;55.686;37.532;2024-01-10T04:04:12;98912.88;;;-3.57;96.73
75312;BME280;63906;55.686;37.532;2024-01-10T04:09:12;98927.59;;;-3.82;96.91
75312;BME280;63906;55.686;37.532;2024-01-10T04:14:13;98950.03;;;-3.95;97.31
75312;BME280;63906;55.686;37.532;2024-01-10T04:19:14;98994.78;;;-3.97;95.97
75312;BME280;63906;55.686;37.532;2024-01-10T04:24:14;98961.97;;;-4.40;96.08
75312;BME280;63906;55.686;37.532;2024-01-10T04:29:14;98855.84;;;-5.48;96.22
75312;BME280;63906;55.686;37.532;2024-01-10T04:34:15;99007.38;;;-4.65;95.47
75312;BME280;63906;55.686;37.532;2024-01-10T04:39:15;99054.34;;;-4.75;95.45
75312;BME280;63906;55.686;37.532;2024-01-10T04:44:16;99073.69;;;-5.08;94.48
75312;BME280;63906;55.686;37.532;2024-01-10T04:49:17;99065.91;;;-5.32;95.42
75312;BME280;63906;55.686;37.532;2024-01-10T04:54:17;99093.50;;;-5.35;94.27
75312;BME280;63906;55.686;37.532;2024-01-10T04:59:17;99075.22;;;-5.69;93.88
75312;BME280;63906;55.686;37.532;2024-01-10T05:04:18;99095.75;;;-6.09;93.39
75312;BME280;63906;55.686;37.532;2024-01-10T05:09:18;99152.38;;;-5.86;93.10
75312;BME280;63906;55.686;37.532;2024-01-10T05:14:19;99177.59;;;-6.20;92.37
75312;BME280;63906;55.686;37.532;2024-01-10T05:19:19;99117.72;;;-6.87;92.69
75312;BME280;63906;55.686;37.532;2024-01-10T05:24:20;99197.75;;;-6.71;92.26
75312;BME280;63906;55.686;37.532;2024-01-10T05:29:20;99220.06;;;-6.73;92.99
75312;BME280;63906;55.686;37.532;2024-01-10T05:34:24;99233.41;;;-6.82;92.17
75312;BME280;63906;55.686;37.532;2024-01-10T05:39:24;99235.91;;;-7.11;92.23
75312;BME280;63906;55.686;37.532;2024-01-10T05:44:25;99231.13;;;-7.31;92.12
75312;BME280;63906;55.686;37.532;2024-01-10T05:49:26;99277.53;;;-7.23;91.78
75312;BME280;63906;55.686;37.532;2024-01-10T05:54:26;99285.97;;;-7.37;92.46
75312;BME280;63906;55.686;37.532;2024-01-10T05:59:27;99279.31;;;-7.55;92.47
75312;BME280;63906;55.686;37.532;2024-01-10T06:04:29;99270.59;;;-7.67;91.77
75312;BME280;63906;55.686;37.532;2024-01-10T06:09:31;99314.09;;;-7.52;91.38
75312;BME280;63906;55.686;37.532;2024-01-10T06:14:32;99298.59;;;-7.97;91.55
75312;BME280;63906;55.686;37.532;2024-01-10T06:19:32;99376.34;;;-7.53;92.46
75312;BME280;63906;55.686;37.532;2024-01-10T06:24:33;99412.38;;;-7.42;92.44
75312;BME280;63906;55.686;37.532;2024-01-10T06:29:33;99341.97;;;-7.79;92.64
75312;BME280;63906;55.686;37.532;2024-01-10T06:34:34;99339.81;;;-7.71;93.20
75312;BME280;63906;55.686;37.532;2024-01-10T06:39:35;99407.59;;;-7.17;92.27
75312;BME280;63906;55.686;37.532;2024-01-10T06:44:35;99400.50;;;-7.27;91.31
75312;BME280;63906;55.686;37.532;2024-01-10T06:49:36;99457.69;;;-7.13;91.08
75312;BME280;63906;55.686;37.532;2024-01-10T06:54:37;99454.78;;;-7.07;90.58
75312;BME280;63906;55.686;37.532;2024-01-10T06:59:37;99387.13;;;-7.64;90.69
75312;BME280;63906;55.686;37.532;2024-01-10T07:04:38;99330.75;;;-7.93;89.91
75312;BME280;63906;55.686;37.532;2024-01-10T07:09:38;99422.25;;;-7.52;89.43
75312;BME280;63906;55.686;37.532;2024-01-10T07:14:41;99490.25;;;-7.16;90.19
75312;BME280;63906;55.686;37.532;2024-01-10T07:19:41;99505.44;;;-7.13;89.67
75312;BME280;63906;55.686;37.532;2024-01-10T07:24:42;99533.97;;;-7.21;89.88
75312;BME280;63906;55.686;37.532;2024-01-10T07:29:42;99506.97;;;-7.42;90.02
75312;BME280;63906;55.686;37.532;2024-01-10T07:34:43;99500.91;;;-7.57;88.28
75312;BME280;63906;55.686;37.532;2024-01-10T07:39:45;99505.63;;;-7.82;87.89
75312;BME280;63906;55.686;37.532;2024-01-10T07:44:45;99547.59;;;-7.71;87.64
75312;BME280;63906;55.686;37.532;2024-01-10T07:49:45;99509.00;;;-8.17;87.34
75312;BME280;63906;55.686;37.532;2024-01-10T07:54:46;99566.09;;;-8.00;88.34
75312;BME280;63906;55.686;37.532;2024-01-10T07:59:46;99544.00;;;-8.19;89.03
75312;BME280;63906;55.686;37.532;2024-01-10T08:04:47;99539.94;;;-8.05;89.90
75312;BME280;63906;55.686;37.532;2024-01-10T08:09:48;99504.34;;;-8.08;89.13
75312;BME280;63906;55.686;37.532;2024-01-10T08:14:48;99591.19;;;-7.74;89.47
75312;BME280;63906;55.686;37.532;2024-01-10T08:19:50;99590.72;;;-7.65;89.83
75312;BME280;63906;55.686;37.532;2024-01-10T08:24:52;99574.66;;;-7.84;88.88
75312;BME280;63906;55.686;37.532;2024-01-10T08:29:53;99505.94;;;-7.89;90.14
75312;BME280;63906;55.686;37.532;2024-01-10T08:34:53;99588.81;;;-7.26;89.33
75312;BME280;63906;55.686;37.532;2024-01-10T08:39:53;99579.97;;;-7.37;88.36
75312;BME280;63906;55.686;37.532;2024-01-10T08:44:54;99532.50;;;-7.75;88.97
75312;BME280;63906;55.686;37.532;2024-01-10T08:49:56;99535.06;;;-7.75;89.57
75312;BME280;63906;55.686;37.532;2024-01-10T08:54:57;99614.66;;;-7.15;89.50
75312;BME280;63906;55.686;37.532;2024-01-10T08:59:57;99584.25;;;-7.04;89.90
75312;BME280;63906;55.686;37.532;2024-01-10T09:04:57;99585.81;;;-7.01;89.89
75312;BME280;63906;55.686;37.532;2024-01-10T09:10:00;99599.50;;;-7.02;89.35
75312;BME280;63906;55.686;37.532;2024-01-10T09:15:01;99615.25;;;-7.10;89.26
75312;BME280;63906;55.686;37.532;2024-01-10T09:20:01;99553.31;;;-7.66;88.62
75312;BME280;63906;55.686;37.532;2024-01-10T09:25:06;99635.97;;;-7.49;89.32
75312;BME280;63906;55.686;37.532;2024-01-10T09:30:07;99592.16;;;-7.76;89.78
75312;BME280;63906;55.686;37.532;2024-01-10T09:35:11;99645.00;;;-7.25;90.47
75312;BME280;63906;55.686;37.532;2024-01-10T09:40:14;99626.13;;;-6.89;90.92
75312;BME280;63906;55.686;37.532;2024-01-10T09:45:15;99624.81;;;-6.65;90.79
75312;BME280;63906;55.686;37.532;2024-01-10T09:50:18;99663.81;;;-6.28;90.09
75312;BME280;63906;55.686;37.532;2024-01-10T09:55:23;99650.22;;;-6.78;88.99
75312;BME280;63906;55.686;37.532;2024-01-10T10:00:23;99676.78;;;-6.63;90.37
75312;BME280;63906;55.686;37.532;2024-01-10T10:05:26;99661.09;;;-6.57;90.23
75312;BME280;63906;55.686;37.532;2024-01-10T10:10:26;99589.13;;;-6.99;89.30
75312;BME280;63906;55.686;37.532;2024-01-10T10:15:28;99522.56;;;-7.31;90.22
75312;BME280;63906;55.686;37.532;2024-01-10T10:20:30;99667.47;;;-6.32;90.44
75312;BME280;63906;55.686;37.532;2024-01-10T10:25:34;99633.66;;;-6.55;90.00
75312;BME280;63906;55.686;37.532;2024-01-10T10:30:35;99660.84;;;-6.36;90.06
75312;BME280;63906;55.686;37.532;2024-01-10T10:35:36;99659.13;;;-6.52;89.54
75312;BME280;63906;55.686;37.532;2024-01-10T10:40:36;99663.16;;;-6.63;89.38
75312;BME280;63906;55.686;37.532;2024-01-10T10:45:37;99648.69;;;-6.97;90.06
75312;BME280;63906;55.686;37.532;2024-01-10T10:50:38;99641.94;;;-6.98;89.75
75312;BME280;63906;55.686;37.532;2024-01-10T10:55:39;99599.59;;;-7.37;89.35
75312;BME280;63906;55.686;37.532;2024-01-10T11:00:41;99662.72;;;-7.22;90.46
75312;BME280;63906;55.686;37.532;2024-01-10T11:05:44;99577.81;;;-7.79;90.23
75312;BME280;63906;55.686;37.532;2024-01-10T11:10:48;99665.59;;;-7.28;90.24
75312;BME280;63906;55.686;37.532;2024-01-10T11:22:07;99576.19;;;-8.51;89.43
75312;BME280;63906;55.686;37.532;2024-01-10T11:27:13;99669.41;;;-8.07;89.79
75312;BME280;63906;55.686;37.532;2024-01-10T11:32:15;99650.00;;;-8.29;89.78
75312;BME280;63906;55.686;37.532;2024-01-10T11:37:16;99677.72;;;-8.21;89.97
75312;BME280;63906;55.686;37.532;2024-01-10T11:42:24;99628.31;;;-8.56;90.20
75312;BME280;63906;55.686;37.532;2024-01-10T11:47:41;99671.16;;;-8.27;89.53
75312;BME280;63906;55.686;37.532;2024-01-10T11:52:42;99658.03;;;-8.36;89.72
75312;BME280;63906;55.686;37.532;2024-01-10T11:57:44;99677.88;;;-8.24;90.00
75312;BME280;63906;55.686;37.532;2024-01-10T12:02:45;99615.34;;;-8.71;89.47
75312;BME280;63906;55.686;37.532;2024-01-10T12:07:51;99692.47;;;-8.09;89.79
75312;BME280;63906;55.686;37.532;2024-01-10T12:12:53;99596.19;;;-8.60;89.88
75312;BME280;63906;55.686;37.532;2024-01-10T12:17:55;99682.00;;;-8.22;89.56
75312;BME280;63906;55.686;37.532;2024-01-10T12:22:56;99681.59;;;-8.13;89.89
75312;BME280;63906;55.686;37.532;2024-01-10T12:28:01;99668.47;;;-8.24;89.55
75312;BME280;63906;55.686;37.532;2024-01-10T12:33:02;99658.34;;;-8.25;89.29
75312;BME280;63906;55.686;37.532;2024-01-10T12:38:03;99676.88;;;-8.22;89.51
75312;BME280;63906;55.686;37.532;2024-01-10T12:43:06;99661.44;;;-8.19;89.56
75312;BME280;63906;55.686;37.532;2024-01-10T12:48:13;99656.88;;;-8.12;89.41
75312;BME280;63906;55.686;37.532;2024-01-10T12:53:17;99644.41;;;-8.18;89.14
75312;BME280;63906;55.686;37.532;2024-01-10T12:58:17;99627.47;;;-8.21;89.66
75312;BME280;63906;55.686;37.532;2024-01-10T13:03:18;99647.34;;;-8.08;89.74
75312;BME280;63906;55.686;37.532;2024-01-10T13:08:19;99629.72;;;-8.32;89.58
75312;BME280;63906;55.686;37.532;2024-01-10T13:13:20;99612.72;;;-8.33;89.97
75312;BME280;63906;55.686;37.532;2024-01-10T13:18:22;99626.28;;;-8.31;89.10
75312;BME280;63906;55.686;37.532;2024-01-10T13:23:23;99613.88;;;-8.57;89.13
75312;BME280;63906;55.686;37.532;2024-01-10T13:28:24;99632.03;;;-8.63;89.60
75312;BME280;63906;55.686;37.532;2024-01-10T13:33:24;99635.97;;;-8.56;89.51
75312;BME280;63906;55.686;37.532;2024-01-10T13:38:28;99603.97;;;-8.82;89.54
75312;BME280;63906;55.686;37.532;2024-01-10T13:43:28;99609.03;;;-9.01;89.30
75312;BME280;63906;55.686;37.532;2024-01-10T13:48:29;99620.97;;;-9.02;89.52
75312;BME280;63906;55.686;37.532;2024-01-10T13:53:29;99611.66;;;-9.03;90.06
75312;BME280;63906;55.686;37.532;2024-01-10T13:58:30;99598.41;;;-9.30;89.80
75312;BME280;63906;55.686;37.532;2024-01-10T14:03:30;99536.41;;;-9.49;90.31
75312;BME280;63906;55.686;37.532;2024-01-10T14:08:31;99594.81;;;-9.26;89.97
75312;BME280;63906;55.686;37.532;2024-01-10T14:13:31;99562.72;;;-9.30;90.35
75312;BME280;63906;55.686;37.532;2024-01-10T14:18:32;99562.66;;;-9.28;90.16
75312;BME280;63906;55.686;37.532;2024-01-10T14:23:33;99560.81;;;-9.25;90.14
75312;BME280;63906;55.686;37.532;2024-01-10T14:28:33;99493.53;;;-9.60;90.28
75312;BME280;63906;55.686;37.532;2024-01-10T14:33:34;99544.25;;;-9.35;89.93
75312;BME280;63906;55.686;37.532;2024-01-10T14:38:34;99522.53;;;-9.83;88.50
75312;BME280;63906;55.686;37.532;2024-01-10T14:43:38;99563.00;;;-9.77;87.75
75312;BME280;63906;55.686;37.532;2024-01-10T14:48:38;99560.72;;;-9.42;89.26
75312;BME280;63906;55.686;37.532;2024-01-10T14:53:39;99473.28;;;-10.22;87.68
75312;BME280;63906;55.686;37.532;2024-01-10T14:58:40;99531.22;;;-9.87;89.49
75312;BME280;63906;55.686;37.532;2024-01-10T15:03:40;99547.59;;;-9.94;88.96
75312;BME280;63906;55.686;37.532;2024-01-10T15:08:42;99543.41;;;-10.15;87.69
75312;BME280;63906;55.686;37.532;2024-01-10T15:13:43;99519.59;;;-9.94;89.03
75312;BME280;63906;55.686;37.532;2024-01-10T15:18:43;99522.56;;;-9.64;89.47
75312;BME280;63906;55.686;37.532;2024-01-10T15:23:45;99425.22;;;-9.70;89.24
75312;BME280;63906;55.686;37.532;2024-01-10T15:28:45;99515.50;;;-8.99;89.04
75312;BME280;63906;55.686;37.532;2024-01-10T15:33:46;99538.56;;;-9.02;88.44
75312;BME280;63906;55.686;37.532;2024-01-10T15:38:46;99517.59;;;-8.90;89.76
75312;BME280;63906;55.686;37.532;2024-01-10T15:43:47;99504.72;;;-8.87;89.54
75312;BME280;63906;55.686;37.532;2024-01-10T15:48:47;99533.91;;;-8.56;89.30
75312;BME280;63906;55.686;37.532;2024-01-10T15:53:48;99498.28;;;-8.77;89.03
75312;BME280;63906;55.686;37.532;2024-01-10T15:58:50;99384.34;;;-9.30;89.34
75312;BME280;63906;55.686;37.532;2024-01-10T16:03:51;99478.81;;;-8.60;89.40
75312;BME280;63906;55.686;37.532;2024-01-10T16:08:51;99477.50;;;-8.50;89.71
75312;BME280;63906;55.686;37.532;2024-01-10T16:13:52;99465.91;;;-8.57;89.69
75312;BME280;63906;55.686;37.532;2024-01-10T16:18:53;99474.41;;;-8.39;89.68
75312;BME280;63906;55.686;37.532;2024-01-10T16:23:53;99449.44;;;-8.50;88.80
75312;BME280;63906;55.686;37.532;2024-01-10T16:28:54;99401.38;;;-8.94;88.13
75312;BME280;63906;55.686;37.532;2024-01-10T16:33:55;99406.03;;;-8.68;88.79
75312;BME280;63906;55.686;37.532;2024-01-10T16:38:55;99403.50;;;-8.68;88.58
75312;BME280;63906;55.686;37.532;2024-01-10T16:43:56;99384.56;;;-8.63;88.31
75312;BME280;63906;55.686;37.532;2024-01-10T16:48:57;99373.41;;;-8.44;88.81
75312;BME280;63906;55.686;37.532;2024-01-10T16:53:58;99358.69;;;-8.23;89.26
75312;BME280;63906;55.686;37.532;2024-01-10T16:58:59;99355.84;;;-8.50;88.18
75312;BME280;63906;55.686;37.532;2024-01-10T17:04:00;99317.72;;;-8.70;88.09
75312;BME280;63906;55.686;37.532;2024-01-10T17:09:00;99226.00;;;-8.89;89.22
75312;BME280;63906;55.686;37.532;2024-01-10T17:14:01;99286.69;;;-8.29;89.20
75312;BME280;63906;55.686;37.532;2024-01-10T17:19:02;99276.41;;;-8.28;88.50
75312;BME280;63906;55.686;37.532;2024-01-10T17:24:02;99240.25;;;-8.20;88.58
75312;BME280;63906;55.686;37.532;2024-01-10T17:29:03;99197.88;;;-8.54;87.96
75312;BME280;63906;55.686;37.532;2024-01-10T17:34:05;99235.25;;;-8.22;86.87
75312;BME280;63906;55.686;37.532;2024-01-10T17:39:05;99239.44;;;-8.21;87.43
75312;BME280;63906;55.686;37.532;2024-01-10T17:44:06;99210.31;;;-8.48;84.75
75312;BME280;63906;55.686;37.532;2024-01-10T17:49:06;99165.56;;;-8.38;87.73
75312;BME280;63906;55.686;37.532;2024-01-10T17:54:08;99174.22;;;-8.10;87.92
75312;BME280;63906;55.686;37.532;2024-01-10T17:59:08;99152.16;;;-8.11;88.27
75312;BME280;63906;55.686;37.532;2024-01-10T18:04:09;99093.53;;;-8.29;88.13
75312;BME280;63906;55.686;37.532;2024-01-10T18:09:09;99115.16;;;-8.04;87.97
75312;BME280;63906;55.686;37.532;2024-01-10T18:14:10;99112.94;;;-8.10;87.79
75312;BME280;63906;55.686;37.532;2024-01-10T18:19:10;99096.25;;;-7.86;89.45
75312;BME280;63906;55.686;37.532;2024-01-10T18:24:12;99100.28;;;-8.12;88.01
75312;BME280;63906;55.686;37.532;2024-01-10T18:29:13;99018.03;;;-8.47;88.19
75312;BME280;63906;55.686;37.532;2024-01-10T18:34:17;99053.31;;;-8.09;88.42
75312;BME280;63906;55.686;37.532;2024-01-10T18:39:17;99046.56;;;-8.10;88.66
75312;BME280;63906;55.686;37.532;2024-01-10T18:44:20;98935.75;;;-8.81;88.23
75312;BME280;63906;55.686;37.532;2024-01-10T18:49:20;99005.16;;;-8.16;87.46
75312;BME280;63906;55.686;37.532;2024-01-10T18:54:21;98997.59;;;-8.03;87.84
75312;BME280;63906;55.686;37.532;2024-01-10T18:59:22;98988.16;;;-7.87;89.35
75312;BME280;63906;55.686;37.532;2024-01-10T19:04:23;98948.75;;;-7.97;89.73
75312;BME280;63906;55.686;37.532;2024-01-10T19:09:24;98879.34;;;-8.32;89.30
75312;BME280;63906;55.686;37.532;2024-01-10T19:14:24;98929.88;;;-7.94;89.25
75312;BME280;63906;55.686;37.532;2024-01-10T19:19:25;98883.72;;;-8.05;89.34
75312;BME280;63906;55.686;37.532;2024-01-10T19:24:26;98888.09;;;-7.79;89.45
75312;BME280;63906;55.686;37.532;2024-01-10T19:29:26;98881.59;;;-7.70;89.64
75312;BME280;63906;55.686;37.532;2024-01-10T19:34:27;98832.47;;;-7.88;88.71
75312;BME280;63906;55.686;37.532;2024-01-10T19:39:28;98837.56;;;-7.88;88.68
75312;BME280;63906;55.686;37.532;2024-01-10T19:44:28;98759.06;;;-7.99;89.17
75312;BME280;63906;55.686;37.532;2024-01-10T19:49:29;98788.72;;;-7.69;89.42
75312;BME280;63906;55.686;37.532;2024-01-10T19:54:32;98739.25;;;-7.95;89.08
75312;BME280;63906;55.686;37.532;2024-01-10T19:59:32;98705.44;;;-7.72;88.98
75312;BME280;63906;55.686;37.532;2024-01-10T20:04:33;98714.38;;;-7.39;88.90
75312;BME280;63906;55.686;37.532;2024-01-10T20:09:34;98714.34;;;-7.25;89.81
75312;BME280;63906;55.686;37.532;2024-01-10T20:14:38;98718.22;;;-7.19;89.59
75312;BME280;63906;55.686;37.532;2024-01-10T20:19:39;98635.75;;;-7.61;89.36
75312;BME280;63906;55.686;37.532;2024-01-10T20:24:39;98600.97;;;-7.76;88.52
75312;BME280;63906;55.686;37.532;2024-01-10T20:29:40;98627.41;;;-7.38;89.54
75312;BME280;63906;55.686;37.532;2024-01-10T20:34:44;98594.72;;;-7.33;89.48
75312;BME280;63906;55.686;37.532;2024-01-10T20:39:47;98584.88;;;-7.26;88.80
75312;BME280;63906;55.686;37.532;2024-01-10T20:44:48;98568.09;;;-7.30;88.87
75312;BME280;63906;55.686;37.532;2024-01-10T20:49:49;98478.88;;;-7.59;89.59
75312;BME280;63906;55.686;37.532;2024-01-10T20:54:49;98524.13;;;-7.22;90.06
75312;BME280;63906;55.686;37.532;2024-01-10T20:59:50;98508.53;;;-7.43;88.71
75312;BME280;63906;55.686;37.532;2024-01-10T21:04:53;98443.47;;;-7.39;88.96
75312;BME280;63906;55.686;37.532;2024-01-10T21:09:53;98467.63;;;-7.07;90.01
75312;BME280;63906;55.686;37.532;2024-01-10T21:14:55;98388.28;;;-7.42;89.61
75312;BME280;63906;55.686;37.532;2024-01-10T21:19:57;98428.56;;;-7.09;89.97
75312;BME280;63906;55.686;37.532;2024-01-10T21:24:57;98367.03;;;-7.42;89.04
75312;BME280;63906;55.686;37.532;2024-01-10T21:29:58;98342.06;;;-7.15;89.95
75312;BME280;63906;55.686;37.532;2024-01-10T21:34:58;98377.59;;;-6.99;89.93
75312;BME280;63906;55.686;37.532;2024-01-10T21:39:59;98341.06;;;-6.66;90.16
75312;BME280;63906;55.686;37.532;2024-01-10T21:44:59;98341.78;;;-6.64;89.93
75312;BME280;63906;55.686;37.532;2024-01-10T21:50:00;98296.63;;;-6.76;90.19
75312;BME280;63906;55.686;37.532;2024-01-10T21:55:00;98247.41;;;-6.91;90.14
75312;BME280;63906;55.686;37.532;2024-01-10T22:00:02;98251.28;;;-6.40;90.26
75312;BME280;63906;55.686;37.532;2024-01-10T22:05:05;98210.56;;;-6.43;90.62
75312;BME280;63906;55.686;37.532;2024-01-10T22:10:06;98196.13;;;-6.33;91.43
75312;BME280;63906;55.686;37.532;2024-01-10T22:15:07;98169.03;;;-6.47;90.48
75312;BME280;63906;55.686;37.532;2024-01-10T22:20:08;98160.31;;;-6.44;91.55
75312;BME280;63906;55.686;37.532;2024-01-10T22:25:11;98147.44;;;-6.22;91.81
75312;BME280;63906;55.686;37.532;2024-01-10T22:30:12;98146.56;;;-6.32;91.46
75312;BME280;63906;55.686;37.532;2024-01-10T22:35:13;98117.31;;;-6.18;91.06
75312;BME280;63906;55.686;37.532;2024-01-10T22:40:13;98111.53;;;-6.00;92.32
75312;BME280;63906;55.686;37.532;2024-01-10T22:45:14;98081.41;;;-6.07;91.69
75312;BME280;63906;55.686;37.532;2024-01-10T22:50:15;98046.81;;;-6.02;91.51
75312;BME280;63906;55.686;37.532;2024-01-10T22:55:18;98032.81;;;-5.98;90.99
75312;BME280;63906;55.686;37.532;2024-01-10T23:00:18;97987.97;;;-6.13;91.35
75312;BME280;63906;55.686;37.532;2024-01-10T23:05:22;97990.41;;;-6.11;91.33
75312;BME280;63906;55.686;37.532;2024-01-10T23:10:23;97935.63;;;-6.20;91.86
75312;BME280;63906;55.686;37.532;2024-01-10T23:15:24;97918.81;;;-5.73;91.45
75312;BME280;63906;55.686;37.532;2024-01-10T23:20:25;97930.41;;;-5.78;91.87
75312;BME280;63906;55.686;37.532;2024-01-10T23:25:25;97872.97;;;-5.76;91.79
75312;BME280;63906;55.686;37.532;2024-01-10T23:30:26;97892.97;;;-5.60;92.47
75312;BME280;63906;55.686;37.532;2024-01-10T23:35:26;97868.19;;;-5.50;92.72
75312;BME280;63906;55.686;37.532;2024-01-10T23:40:28;97825.00;;;-5.54;92.63
75312;BME280;63906;55.686;37.532;2024-01-10T23:45:29;97843.09;;;-5.36;92.47
75312;BME280;63906;55.686;37.532;2024-01-10T23:50:29;97811.38;;;-5.35;92.37
75312;BME280;63906;55.686;37.532;2024-01-10T23:55:30;97784.81;;;-5.34;92.81
